Time;durP1;ratioP1;P1;durP2;ratioP2;P2;SDS_P1;SDS_P2;PMS_P1;PMS_P2;Temp;Humidity;BMP_temperature;BMP_pressure;BME280_temperature;BME280_humidity;BME280_pressure;Samples;Min_cycle;Max_cycle;Signal;HPM_P1;HPM_P2
2022/07/08 00:01:05;;;;;;;9.00;2.10;;;;;;;14.43;100.00;103072.47;5111910;28;20106;-72
2022/07/08 00:03:30;;;;;;;10.95;2.15;;;;;;;14.41;100.00;103078.53;5113027;28;20053;-71
2022/07/08 00:05:56;;;;;;;5.53;1.55;;;;;;;14.38;100.00;103083.69;5096715;28;20031;-71
2022/07/08 00:08:21;;;;;;;11.45;2.15;;;;;;;14.36;100.00;103077.47;5108686;28;20104;-71
2022/07/08 00:10:47;;;;;;;11.38;1.75;;;;;;;14.33;100.00;103072.94;5110427;28;20031;-72
2022/07/08 00:13:12;;;;;;;16.30;2.50;;;;;;;14.34;100.00;103080.06;5106034;28;20047;-71
2022/07/08 00:15:37;;;;;;;7.38;1.60;;;;;;;14.18;100.00;103083.88;5111177;28;20388;-70
2022/07/08 00:18:03;;;;;;;9.27;1.90;;;;;;;14.07;100.00;103080.81;5097144;28;20103;-72
2022/07/08 00:20:28;;;;;;;9.80;1.77;;;;;;;14.13;100.00;103081.06;5105640;28;20081;-72
2022/07/08 00:22:56;;;;;;;8.38;1.63;;;;;;;14.05;100.00;103082.50;5109959;28;20074;-71
2022/07/08 00:25:21;;;;;;;7.25;1.50;;;;;;;14.08;100.00;103081.72;5102683;28;20025;-71
2022/07/08 00:27:46;;;;;;;8.38;1.50;;;;;;;14.13;100.00;103080.16;5109049;28;20107;-71
2022/07/08 00:30:12;;;;;;;6.80;1.60;;;;;;;14.17;100.00;103082.06;5106766;28;20032;-70
2022/07/08 00:32:37;;;;;;;10.38;2.00;;;;;;;14.07;100.00;103080.81;5102292;28;20232;-71
2022/07/08 00:35:04;;;;;;;7.22;1.60;;;;;;;14.03;100.00;103072.72;5094030;28;20471;-71
2022/07/08 00:37:29;;;;;;;9.32;1.75;;;;;;;13.98;100.00;103075.16;5104078;28;20081;-72
2022/07/08 00:39:55;;;;;;;8.23;1.75;;;;;;;13.96;100.00;103076.88;5111724;28;20028;-71
2022/07/08 00:42:20;;;;;;;6.65;1.40;;;;;;;13.95;100.00;103073.31;5112260;28;20027;-71
2022/07/08 00:44:45;;;;;;;16.25;2.20;;;;;;;13.95;100.00;103069.78;5099478;28;20016;-71
2022/07/08 00:47:11;;;;;;;13.73;1.92;;;;;;;14.04;100.00;103075.41;5100965;28;20107;-71
2022/07/08 00:49:36;;;;;;;8.07;1.75;;;;;;;14.08;100.00;103082.63;5108763;28;20028;-70
2022/07/08 00:52:02;;;;;;;11.85;1.95;;;;;;;14.14;100.00;103077.56;5112867;28;20134;-72
2022/07/08 00:54:27;;;;;;;14.65;1.90;;;;;;;14.07;100.00;103077.28;5086822;28;20090;-71
2022/07/08 00:56:54;;;;;;;14.20;2.00;;;;;;;14.02;100.00;103071.78;5112683;28;20059;-70
2022/07/08 00:59:20;;;;;;;5.47;1.55;;;;;;;13.98;100.00;103072.53;5100612;28;20024;-70
2022/07/08 01:01:45;;;;;;;10.18;2.22;;;;;;;13.92;100.00;103064.38;5104867;28;20042;-70
2022/07/08 01:04:11;;;;;;;8.07;1.92;;;;;;;13.89;100.00;103061.56;5112144;28;20028;-71
2022/07/08 01:06:37;;;;;;;7.35;1.83;;;;;;;13.88;100.00;103062.44;5112542;28;20023;-71
2022/07/08 01:09:02;;;;;;;14.95;1.80;;;;;;;13.94;100.00;103073.25;5106494;28;20366;-72
2022/07/08 01:11:28;;;;;;;17.70;2.65;;;;;;;13.81;100.00;103074.53;5103956;28;20055;-71
2022/07/08 01:13:55;;;;;;;7.15;1.25;;;;;;;13.75;100.00;103079.56;5073124;28;20016;-71
2022/07/08 01:16:20;;;;;;;9.65;1.65;;;;;;;13.61;100.00;103076.38;5105137;28;20517;-71
2022/07/08 01:18:45;;;;;;;14.18;1.95;;;;;;;13.58;100.00;103078.88;5108030;28;20023;-71
2022/07/08 01:21:11;;;;;;;15.63;1.98;;;;;;;13.47;100.00;103075.84;5083403;28;20037;-70
2022/07/08 01:23:36;;;;;;;10.18;1.55;;;;;;;13.33;100.00;103076.13;5102638;28;20073;-72
2022/07/08 01:26:09;;;;;;;9.15;2.28;;;;;;;13.31;100.00;103068.97;5089307;28;20023;-71
2022/07/08 01:28:35;;;;;;;9.18;2.30;;;;;;;13.30;100.00;103067.16;5093575;28;20024;-72
2022/07/08 01:31:02;;;;;;;11.48;1.90;;;;;;;13.29;100.00;103062.72;5114178;28;20035;-71
2022/07/08 01:33:28;;;;;;;8.02;1.83;;;;;;;13.24;100.00;103062.53;5110181;28;20031;-71
2022/07/08 01:35:53;;;;;;;7.05;1.83;;;;;;;13.16;100.00;103070.13;5085464;28;20028;-72
2022/07/08 01:38:18;;;;;;;11.63;2.33;;;;;;;13.09;100.00;103076.03;5111286;28;20426;-71
2022/07/08 01:40:44;;;;;;;14.35;1.98;;;;;;;13.05;100.00;103071.44;5108075;28;20042;-70
2022/07/08 01:43:09;;;;;;;11.65;1.98;;;;;;;13.07;100.00;103080.31;5112341;28;20099;-70
2022/07/08 01:45:34;;;;;;;7.28;1.65;;;;;;;13.09;100.00;103081.31;5113939;28;20027;-71
2022/07/08 01:48:00;;;;;;;7.18;1.92;;;;;;;13.03;100.00;103070.47;5108727;28;20048;-71
2022/07/08 01:50:25;;;;;;;11.50;1.83;;;;;;;13.01;100.00;103068.59;5096536;28;20023;-72
2022/07/08 01:52:50;;;;;;;9.68;2.00;;;;;;;12.96;100.00;103063.13;5106646;28;20043;-70
2022/07/08 01:55:16;;;;;;;6.78;1.80;;;;;;;12.98;100.00;103057.06;5101537;28;20032;-71
2022/07/08 01:57:41;;;;;;;10.43;1.70;;;;;;;12.99;100.00;103060.59;5113208;28;20109;-70
2022/07/08 02:00:07;;;;;;;7.15;1.67;;;;;;;12.96;100.00;103066.66;5108146;28;20081;-72
2022/07/08 02:02:32;;;;;;;10.18;1.70;;;;;;;13.01;100.00;103069.50;5112652;28;20043;-71
2022/07/08 02:04:58;;;;;;;8.73;1.75;;;;;;;13.01;100.00;103068.59;5108633;28;20047;-71
2022/07/08 02:07:23;;;;;;;13.27;1.60;;;;;;;13.00;100.00;103062.41;5105854;28;20475;-71
2022/07/08 02:09:48;;;;;;;11.75;1.90;;;;;;;12.96;100.00;103065.75;5114495;28;20023;-72
2022/07/08 02:12:19;;;;;;;12.38;1.77;;;;;;;12.95;100.00;103063.94;5103689;28;20028;-70
2022/07/08 02:14:49;;;;;;;10.52;1.70;;;;;;;12.95;100.00;103066.59;5111973;28;20034;-71
2022/07/08 02:17:16;;;;;;;10.40;1.95;;;;;;;12.93;100.00;103068.28;5094776;28;20085;-71
2022/07/08 02:19:42;;;;;;;12.15;2.83;;;;;;;12.95;100.00;103067.50;5108054;28;20487;-71
2022/07/08 02:22:08;;;;;;;10.13;1.73;;;;;;;13.04;100.00;103074.91;5114818;28;20026;-71
2022/07/08 02:24:34;;;;;;;13.35;1.95;;;;;;;13.02;100.00;103073.03;5114472;28;20383;-72
2022/07/08 02:27:00;;;;;;;10.98;1.67;;;;;;;13.06;100.00;103064.41;5112160;28;20058;-72
2022/07/08 02:29:25;;;;;;;10.85;2.33;;;;;;;13.08;100.00;103063.63;5093944;28;20541;-71
2022/07/08 02:31:50;;;;;;;7.88;2.08;;;;;;;13.10;100.00;103061.97;5103479;28;20024;-72
2022/07/08 02:34:16;;;;;;;11.43;2.92;;;;;;;12.99;100.00;103058.88;5110595;28;20056;-72
2022/07/08 02:36:41;;;;;;;8.02;1.85;;;;;;;12.96;100.00;103056.09;5086648;28;20074;-72
2022/07/08 02:39:06;;;;;;;8.32;1.48;;;;;;;12.91;100.00;103059.38;5114319;28;20023;-72
2022/07/08 02:41:32;;;;;;;6.97;1.70;;;;;;;12.81;100.00;103058.97;5111311;28;20060;-71
2022/07/08 02:43:57;;;;;;;9.02;2.03;;;;;;;12.77;100.00;103061.44;5099170;28;20020;-72
2022/07/08 02:46:22;;;;;;;13.68;2.90;;;;;;;12.76;100.00;103062.25;5104948;28;20027;-71
2022/07/08 02:48:48;;;;;;;9.52;2.15;;;;;;;12.76;100.00;103068.44;5100126;28;20495;-71
2022/07/08 02:51:13;;;;;;;13.52;1.85;;;;;;;12.72;100.00;103055.94;5106087;28;20036;-72
2022/07/08 02:53:38;;;;;;;14.73;2.45;;;;;;;12.64;100.00;103055.63;5104994;28;20032;-71
2022/07/08 02:56:04;;;;;;;11.48;2.33;;;;;;;12.66;100.00;103055.69;5110568;28;20020;-71
2022/07/08 02:58:29;;;;;;;5.43;1.65;;;;;;;12.66;100.00;103050.41;5108080;28;20118;-71
2022/07/08 03:00:55;;;;;;;8.77;2.10;;;;;;;12.58;100.00;103052.69;5105402;28;20052;-71
2022/07/08 03:03:20;;;;;;;10.48;2.20;;;;;;;12.60;100.00;103050.13;5097405;28;20113;-71
2022/07/08 03:05:45;;;;;;;8.60;1.88;;;;;;;12.64;100.00;103046.78;5108521;28;20045;-72
2022/07/08 03:08:10;;;;;;;5.13;1.83;;;;;;;12.72;100.00;103040.06;5100138;28;20085;-72
2022/07/08 03:10:36;;;;;;;6.03;1.88;;;;;;;12.69;100.00;103041.72;5099020;28;20487;-72
2022/07/08 03:13:01;;;;;;;6.72;1.70;;;;;;;12.71;100.00;103043.56;5099242;28;20024;-71
2022/07/08 03:15:26;;;;;;;10.18;1.80;;;;;;;12.63;100.00;103052.91;5106748;28;20031;-71
2022/07/08 03:17:52;;;;;;;9.63;1.98;;;;;;;12.58;100.00;103051.81;5102834;28;20019;-71
2022/07/08 03:20:20;;;;;;;10.05;1.58;;;;;;;12.52;100.00;103056.81;5103735;28;20119;-71
2022/07/08 03:22:46;;;;;;;8.25;1.45;;;;;;;12.51;100.00;103052.34;5112206;28;20455;-72
2022/07/08 03:25:11;;;;;;;11.32;1.80;;;;;;;12.47;100.00;103043.41;5113600;28;20018;-72
2022/07/08 03:27:37;;;;;;;8.57;1.63;;;;;;;12.44;100.00;103049.44;5111990;28;20033;-72
2022/07/08 03:30:04;;;;;;;13.68;2.63;;;;;;;12.40;100.00;103047.50;5082657;28;20110;-71
2022/07/08 03:32:29;;;;;;;8.43;1.80;;;;;;;12.41;100.00;103044.03;5099375;28;20019;-71
2022/07/08 03:34:54;;;;;;;11.07;1.90;;;;;;;12.39;100.00;103050.09;5109374;28;20540;-71
2022/07/08 03:37:20;;;;;;;4.57;1.63;;;;;;;12.39;100.00;103044.81;5095225;28;20030;-72
2022/07/08 03:39:45;;;;;;;9.60;1.92;;;;;;;12.40;100.00;103066.00;5097746;28;20045;-71
2022/07/08 03:42:10;;;;;;;10.65;2.13;;;;;;;12.39;100.00;103061.53;5102916;28;20024;-71
2022/07/08 03:44:36;;;;;;;6.35;2.22;;;;;;;12.42;100.00;103053.75;5105662;28;20023;-72
2022/07/08 03:47:01;;;;;;;9.13;2.10;;;;;;;12.42;100.00;103066.94;5094096;28;20027;-71
2022/07/08 03:49:26;;;;;;;5.07;2.05;;;;;;;12.52;100.00;103060.38;5107121;28;20034;-71
2022/07/08 03:51:52;;;;;;;12.30;2.28;;;;;;;12.55;100.00;103063.13;5093643;28;20056;-71
2022/07/08 03:54:17;;;;;;;14.48;2.78;;;;;;;12.55;100.00;103064.88;5106558;28;20113;-72
2022/07/08 03:56:43;;;;;;;10.82;2.25;;;;;;;12.58;100.00;103057.97;5103834;28;20023;-72
2022/07/08 03:59:08;;;;;;;4.60;2.00;;;;;;;12.63;100.00;103055.56;5104951;28;20398;-72
2022/07/08 04:01:33;;;;;;;7.47;1.98;;;;;;;12.59;100.00;103053.63;5099025;28;20117;-72
2022/07/08 04:03:59;;;;;;;10.55;2.63;;;;;;;12.61;100.00;103059.84;5104835;28;20440;-72
2022/07/08 04:06:24;;;;;;;4.75;2.08;;;;;;;12.64;100.00;103058.25;5086313;28;20035;-71
2022/07/08 04:08:49;;;;;;;13.27;3.20;;;;;;;12.61;100.00;103060.75;5108195;28;20028;-72
2022/07/08 04:11:15;;;;;;;10.32;2.25;;;;;;;12.64;100.00;103059.97;5101096;28;20024;-71
2022/07/08 04:13:40;;;;;;;8.13;2.40;;;;;;;12.66;100.00;103060.97;5102234;28;20028;-72
2022/07/08 04:16:10;;;;;;;9.95;2.13;;;;;;;12.72;100.00;103061.22;5111256;28;20035;-71
2022/07/08 04:18:36;;;;;;;11.18;2.60;;;;;;;12.68;100.00;103056.63;5110981;28;20023;-71
2022/07/08 04:21:02;;;;;;;14.25;2.67;;;;;;;12.77;100.00;103064.06;5104273;28;20024;-73
2022/07/08 04:23:27;;;;;;;8.60;2.40;;;;;;;12.82;100.00;103062.53;5100881;28;20015;-73
2022/07/08 04:25:52;;;;;;;11.10;2.15;;;;;;;12.79;100.00;103058.03;5103029;28;20028;-72
2022/07/08 04:28:18;;;;;;;11.68;3.10;;;;;;;12.92;100.00;103063.81;5105419;28;20028;-72
2022/07/08 04:30:43;;;;;;;13.85;3.10;;;;;;;12.94;100.00;103062.13;5101910;28;20034;-72
2022/07/08 04:33:09;;;;;;;8.98;3.05;;;;;;;12.96;100.00;103063.13;5094488;28;20111;-71
2022/07/08 04:35:36;;;;;;;10.23;2.83;;;;;;;12.96;100.00;103063.13;5105853;28;20124;-72
2022/07/08 04:38:01;;;;;;;14.23;4.18;;;;;;;13.00;100.00;103067.69;5109068;28;20463;-71
2022/07/08 04:40:27;;;;;;;16.80;3.70;;;;;;;13.03;100.00;103072.22;5105893;28;20016;-74
2022/07/08 04:42:53;;;;;;;16.38;3.70;;;;;;;13.12;100.00;103078.78;5106412;28;20085;-72
2022/07/08 04:45:18;;;;;;;8.70;2.30;;;;;;;13.25;100.00;103089.88;5089092;28;20452;-73
2022/07/08 04:47:44;;;;;;;13.68;2.95;;;;;;;13.30;100.00;103088.31;5097395;28;20153;-72
2022/07/08 04:50:09;;;;;;;7.50;2.13;;;;;;;13.37;100.00;103094.81;5082366;28;20024;-72
2022/07/08 04:52:35;;;;;;;14.85;2.53;;;;;;;13.41;100.00;103092.34;5076133;28;20053;-74
2022/07/08 04:55:00;;;;;;;8.18;2.40;;;;;;;13.47;100.00;103092.59;5085517;28;20024;-68
2022/07/08 04:57:25;;;;;;;11.60;2.60;;;;;;;13.55;100.00;103095.56;5083189;28;20059;-69
2022/07/08 04:59:51;;;;;;;10.27;2.15;;;;;;;13.64;100.00;103102.94;5082412;28;20437;-68
2022/07/08 05:02:16;;;;;;;9.80;2.35;;;;;;;13.70;100.00;103103.22;5085851;28;20065;-69
2022/07/08 05:04:41;;;;;;;16.17;2.58;;;;;;;13.78;100.00;103108.78;5092755;28;20483;-69
2022/07/08 05:07:07;;;;;;;10.27;2.22;;;;;;;13.85;100.00;103117.88;5091676;28;20032;-69
2022/07/08 05:09:32;;;;;;;5.78;2.13;;;;;;;13.95;100.00;103117.41;5087620;28;20028;-67
2022/07/08 05:11:58;;;;;;;9.82;2.28;;;;;;;14.03;100.00;103120.38;5083720;28;20759;-67
2022/07/08 05:14:23;;;;;;;10.55;2.17;;;;;;;14.12;100.00;103120.69;5088669;28;20035;-67
2022/07/08 05:16:48;;;;;;;7.53;2.58;;;;;;;14.19;100.00;103116.53;5079155;28;20118;-67
2022/07/08 05:19:14;;;;;;;15.73;2.38;;;;;;;14.29;100.00;103121.34;5081542;28;20419;-67
2022/07/08 05:21:39;;;;;;;14.65;2.33;;;;;;;14.33;100.00;103121.50;5076570;28;20063;-69
2022/07/08 05:24:06;;;;;;;6.85;2.35;;;;;;;14.37;100.00;103117.25;5087763;28;20043;-68
2022/07/08 05:26:32;;;;;;;11.85;2.33;;;;;;;14.47;100.00;103116.75;5094494;28;20093;-72
2022/07/08 05:28:57;;;;;;;10.13;2.38;;;;;;;14.54;100.00;103109.94;5095273;28;20425;-69
2022/07/08 05:31:23;;;;;;;12.73;2.70;;;;;;;14.61;100.00;103118.97;5090811;28;20037;-69
2022/07/08 05:33:48;;;;;;;14.18;2.53;;;;;;;14.65;100.00;103118.31;5075803;28;20058;-70
2022/07/08 05:36:13;;;;;;;13.13;2.67;;;;;;;14.73;100.00;103119.50;5090529;28;20028;-70
2022/07/08 05:38:39;;;;;;;14.23;2.80;;;;;;;14.80;100.00;103118.84;5074582;28;20032;-70
2022/07/08 05:41:04;;;;;;;11.43;2.22;;;;;;;14.88;100.00;103116.47;5074731;28;20025;-70
2022/07/08 05:43:29;;;;;;;10.68;2.13;;;;;;;14.97;100.00;103121.19;5073399;28;20096;-70
2022/07/08 05:45:55;;;;;;;9.38;1.95;;;;;;;15.05;100.00;103119.72;5074920;28;20025;-70
2022/07/08 05:48:21;;;;;;;5.55;1.63;;;;;;;15.14;100.00;103133.28;5075683;28;20435;-70
2022/07/08 05:50:47;;;;;;;11.25;2.05;;;;;;;15.20;100.00;103124.63;5078218;28;20020;-69
2022/07/08 05:53:15;;;;;;;11.15;2.13;;;;;;;15.26;100.00;103131.91;5095512;28;20064;-70
2022/07/08 05:55:41;;;;;;;9.25;1.80;;;;;;;15.32;100.00;103125.03;5108355;28;20364;-69
2022/07/08 05:58:06;;;;;;;7.55;2.22;;;;;;;15.37;100.00;103127.88;5095764;28;20028;-69
2022/07/08 06:00:31;;;;;;;12.68;2.17;;;;;;;15.41;100.00;103128.84;5095707;28;20034;-70
2022/07/08 06:02:57;;;;;;;13.63;1.95;;;;;;;15.45;100.00;103129.03;5095605;28;20031;-69
2022/07/08 06:05:22;;;;;;;9.52;2.22;;;;;;;15.49;100.00;103138.88;5109079;28;20463;-69
2022/07/08 06:07:47;;;;;;;17.60;2.70;;;;;;;15.50;100.00;103138.03;5095467;28;20020;-70
2022/07/08 06:10:13;;;;;;;10.60;2.13;;;;;;;15.56;100.00;103144.38;5094404;28;20046;-70
2022/07/08 06:12:38;;;;;;;12.65;2.40;;;;;;;15.59;100.00;103136.53;5095623;28;20115;-69
2022/07/08 06:15:04;;;;;;;10.38;1.90;;;;;;;15.67;100.00;103141.22;5095325;28;20064;-69
2022/07/08 06:17:29;;;;;;;15.05;2.45;;;;;;;15.71;100.00;103150.22;5095494;28;20398;-70
2022/07/08 06:19:55;;;;;;;15.05;2.10;;;;;;;15.77;100.00;103146.84;5112280;28;20053;-70
2022/07/08 06:22:20;;;;;;;10.90;1.90;;;;;;;15.88;100.00;103157.84;5111160;28;20039;-70
2022/07/08 06:24:45;;;;;;;7.63;1.52;;;;;;;15.94;100.00;103161.59;5112189;28;20043;-70
2022/07/08 06:27:11;;;;;;;9.52;1.73;;;;;;;15.99;100.00;103152.03;5097178;28;20084;-70
2022/07/08 06:29:37;;;;;;;11.50;2.00;;;;;;;16.06;100.00;103161.09;5095060;28;20039;-70
2022/07/08 06:32:04;;;;;;;16.48;2.45;;;;;;;16.12;100.00;103153.28;5095078;28;20032;-70
2022/07/08 06:34:29;;;;;;;20.52;2.78;;;;;;;16.22;100.00;103154.47;5094897;28;20024;-70
2022/07/08 06:36:54;;;;;;;11.10;2.38;;;;;;;16.23;100.00;103150.06;5094916;28;20137;-70
2022/07/08 06:39:20;;;;;;;11.57;2.10;;;;;;;16.35;100.00;103158.41;5094870;28;20020;-70
2022/07/08 06:41:45;;;;;;;9.98;1.90;;;;;;;16.44;100.00;103152.44;5094749;28;20031;-70
2022/07/08 06:44:10;;;;;;;10.23;1.63;;;;;;;16.59;100.00;103165.28;5094869;28;20032;-70
2022/07/08 06:46:36;;;;;;;8.80;1.70;;;;;;;16.68;100.00;103154.91;5094788;28;20464;-69
2022/07/08 06:49:01;;;;;;;6.43;1.50;;;;;;;16.75;100.00;103159.53;5100164;28;20110;-69
2022/07/08 06:51:26;;;;;;;7.05;1.80;;;;;;;16.78;100.00;103156.97;5096708;28;20385;-69
2022/07/08 06:56:35;;;;;;;;;;;;;;;16.86;100.00;103158.09;5095121;28;20035;-69
2022/07/08 06:59:01;;;;;;;4.07;1.23;;;;;;;16.89;100.00;103164.34;5094533;28;20320;-69
2022/07/08 07:01:26;;;;;;;3.85;1.20;;;;;;;16.97;100.00;103162.81;5094423;28;20749;-70
2022/07/08 07:03:51;;;;;;;7.85;1.60;;;;;;;17.05;100.00;103148.00;5094440;28;20020;-70
2022/07/08 07:06:17;;;;;;;10.68;1.70;;;;;;;17.12;100.00;103149.94;5094321;28;20024;-69
2022/07/08 07:08:42;;;;;;;9.27;1.83;;;;;;;17.22;100.00;103150.19;5094237;28;20073;-70
2022/07/08 07:11:07;;;;;;;6.18;1.58;;;;;;;17.23;100.00;103150.22;5094278;28;20105;-70
2022/07/08 07:13:33;;;;;;;4.55;1.20;;;;;;;17.28;100.00;103147.69;5094220;28;20032;-69
2022/07/08 07:15:58;;;;;;;8.93;1.55;;;;;;;17.34;100.00;103150.50;5094138;28;20032;-70
2022/07/08 07:18:25;;;;;;;10.93;1.85;;;;;;;17.37;100.00;103153.25;5098313;28;20020;-70
2022/07/08 07:20:50;;;;;;;9.52;1.50;;;;;;;17.33;100.00;103148.69;5108604;28;20028;-70
2022/07/08 07:23:16;;;;;;;6.43;1.60;;;;;;;17.44;100.00;103149.88;5094049;28;20093;-70
2022/07/08 07:25:41;;;;;;;6.07;1.48;;;;;;;17.51;100.00;103151.84;5113119;28;20097;-70
2022/07/08 07:28:06;;;;;;;10.95;1.80;;;;;;;17.60;100.00;103155.59;5114685;28;20055;-69
2022/07/08 07:30:32;;;;;;;9.75;1.92;;;;;;;17.61;100.00;103160.06;5114420;28;20023;-70
2022/07/08 07:32:57;;;;;;;9.25;1.70;;;;;;;17.64;100.00;103152.13;5114353;28;20020;-70
2022/07/08 07:35:23;;;;;;;7.53;1.80;;;;;;;17.68;100.00;103151.34;5114064;28;20023;-69
2022/07/08 07:37:48;;;;;;;9.75;1.40;;;;;;;17.75;100.00;103150.63;5114223;28;20031;-70
2022/07/08 07:40:13;;;;;;;6.90;1.45;;;;;;;17.77;100.00;103153.31;5095938;28;20382;-70
2022/07/08 07:42:39;;;;;;;12.23;2.40;;;;;;;17.83;100.00;103159.69;5114241;28;20084;-70
2022/07/08 07:45:05;;;;;;;4.55;1.13;;;;;;;17.89;100.00;103152.72;5114113;28;20095;-70
2022/07/08 07:47:31;;;;;;;9.98;2.03;;;;;;;17.97;100.00;103157.41;5095121;28;20027;-70
2022/07/08 07:49:56;;;;;;;7.43;1.52;;;;;;;18.04;100.00;103153.09;5112930;28;20030;-70
2022/07/08 07:52:22;;;;;;;6.60;1.55;;;;;;;17.99;100.00;103152.09;5094566;28;20089;-70
2022/07/08 07:54:47;;;;;;;9.00;1.65;;;;;;;17.98;100.00;103147.63;5108918;28;20020;-70
2022/07/08 07:57:13;;;;;;;5.25;1.10;;;;;;;18.08;100.00;103149.66;5094788;28;20027;-70
2022/07/08 07:59:39;;;;;;;8.40;1.48;;;;;;;18.19;100.00;103142.78;5113101;28;20027;-70
2022/07/08 08:02:05;;;;;;;8.30;1.33;;;;;;;18.23;100.00;103148.16;5113229;28;20443;-70
2022/07/08 08:04:30;;;;;;;4.88;1.30;;;;;;;18.25;100.00;103139.34;5112900;28;20015;-70
2022/07/08 08:06:56;;;;;;;9.63;1.40;;;;;;;18.30;100.00;103142.09;5094539;28;20068;-70
2022/07/08 08:09:21;;;;;;;4.82;1.10;;;;;;;18.27;100.00;103139.38;5112639;28;20100;-70
2022/07/08 08:11:47;;;;;;;7.88;1.40;;;;;;;18.29;100.00;103138.53;5112791;28;20072;-70
2022/07/08 08:14:12;;;;;;;9.25;1.63;;;;;;;18.26;100.00;103141.16;5113452;28;20054;-69
2022/07/08 08:16:37;;;;;;;5.72;1.25;;;;;;;18.35;100.00;103140.44;5114017;28;20481;-71
2022/07/08 08:19:02;;;;;;;8.82;1.55;;;;;;;18.27;100.00;103136.72;5113164;28;20089;-70
2022/07/08 08:21:29;;;;;;;4.47;1.65;;;;;;;18.33;100.00;103140.41;5103340;28;20465;-70
2022/07/08 08:23:55;;;;;;;5.38;1.30;;;;;;;18.37;100.00;103147.59;5097173;28;20047;-70
2022/07/08 08:26:22;;;;;;;7.63;1.55;;;;;;;18.43;100.00;103144.16;5095503;28;20051;-71
2022/07/08 08:28:48;;;;;;;10.00;1.52;;;;;;;18.60;100.00;103141.84;5113539;28;20023;-69
2022/07/08 08:31:13;;;;;;;7.18;1.30;;;;;;;18.56;100.00;103141.72;5095399;28;20489;-70
2022/07/08 08:33:38;;;;;;;6.50;1.73;;;;;;;18.58;100.00;103145.34;5115411;28;20024;-70
2022/07/08 08:36:04;;;;;;;3.83;1.40;;;;;;;18.62;100.00;103153.44;5117753;28;20052;-70
2022/07/08 08:38:29;;;;;;;9.38;1.73;;;;;;;18.71;100.00;103147.41;5117731;28;20023;-69
2022/07/08 08:40:58;;;;;;;8.75;2.15;;;;;;;18.80;100.00;103146.66;5117932;28;20016;-69
2022/07/08 08:43:23;;;;;;;11.13;1.67;;;;;;;18.78;100.00;103146.63;5117865;28;20102;-69
2022/07/08 08:45:51;;;;;;;9.65;1.75;;;;;;;18.87;100.00;103152.16;5117609;28;20111;-70
2022/07/08 08:48:20;;;;;;;5.93;1.35;;;;;;;19.06;100.00;103159.63;5117363;28;20383;-71
2022/07/08 08:50:54;;;;;;;5.55;1.30;;;;;;;19.05;100.00;103150.72;5117446;28;20072;-69
2022/07/08 08:53:25;;;;;;;4.00;1.10;;;;;;;19.25;100.00;103156.44;5117564;28;20084;-70
2022/07/08 08:55:51;;;;;;;7.03;1.10;;;;;;;19.32;100.00;103150.31;5113064;28;20039;-69
2022/07/08 08:58:17;;;;;;;5.60;1.00;;;;;;;19.28;100.00;103150.25;5117316;28;20046;-70
2022/07/08 09:00:43;;;;;;;6.82;1.23;;;;;;;19.35;100.00;103152.16;5117335;28;20102;-69
2022/07/08 09:03:09;;;;;;;4.25;1.33;;;;;;;19.49;100.00;103155.03;5117437;28;20382;-69
2022/07/08 09:05:34;;;;;;;3.58;0.90;;;;;;;19.62;100.00;103154.38;5117557;28;20119;-70
2022/07/08 09:07:59;;;;;;;6.63;1.20;;;;;;;19.71;100.00;103156.31;5117603;28;20023;-70
2022/07/08 09:10:26;;;;;;;6.63;1.40;;;;;;;19.74;100.00;103153.66;5117462;28;20077;-70
2022/07/08 09:13:12;;;;;;;7.80;1.30;;;;;;;19.85;100.00;103152.06;5099337;28;20034;-72
2022/07/08 09:15:47;;;;;;;3.33;1.17;;;;;;;19.97;100.00;103151.38;5117096;28;20104;-69
2022/07/08 09:18:13;;;;;;;6.75;1.30;;;;;;;19.96;100.00;103146.00;5109062;28;20056;-71
2022/07/08 09:20:45;;;;;;;3.42;1.27;;;;;;;19.97;100.00;103148.69;5113065;28;20024;-69
2022/07/08 09:23:13;;;;;;;10.00;1.77;;;;;;;20.07;100.00;103152.38;5096460;28;20417;-69
2022/07/08 09:25:39;;;;;;;6.88;1.50;;;;;;;20.12;100.00;103140.00;5115083;28;20023;-70
2022/07/08 09:28:04;;;;;;;6.10;1.58;;;;;;;20.25;100.00;103148.16;5117022;28;20523;-70
2022/07/08 09:30:30;;;;;;;4.57;1.38;;;;;;;20.09;100.00;103152.41;5116942;28;20028;-70
2022/07/08 09:32:58;;;;;;;6.65;1.50;;;;;;;20.24;100.00;103149.97;5117301;28;20038;-69
2022/07/08 09:35:35;;;;;;;5.55;1.83;;;;;;;20.37;100.00;103153.66;5116797;28;20026;-70
2022/07/08 09:38:07;;;;;;;4.15;1.20;;;;;;;20.49;100.00;103161.84;5116973;28;20076;-70
2022/07/08 09:40:34;;;;;;;6.88;1.50;;;;;;;20.47;100.00;103155.59;5116668;28;20023;-71
2022/07/08 09:43:01;;;;;;;2.60;0.80;;;;;;;20.64;100.00;103160.25;5116463;28;20035;-69
2022/07/08 09:45:29;;;;;;;5.38;1.00;;;;;;;20.63;93.58;103154.00;5116605;28;20053;-69
2022/07/08 09:48:04;;;;;;;4.75;1.02;;;;;;;20.55;91.22;103159.25;5116270;28;20035;-69
2022/07/08 09:50:48;;;;;;;5.50;0.98;;;;;;;20.75;95.83;103155.94;5116363;28;20538;-70
2022/07/08 09:53:25;;;;;;;3.80;0.90;;;;;;;20.91;89.72;103158.78;5115968;28;20118;-70
2022/07/08 09:55:52;;;;;;;4.72;0.77;;;;;;;20.91;88.00;103150.75;5092849;28;20035;-70
2022/07/08 09:58:23;;;;;;;3.53;0.80;;;;;;;20.93;84.91;103157.00;5116246;28;20034;-70
2022/07/08 10:00:51;;;;;;;4.40;1.00;;;;;;;20.79;85.60;103151.53;5116310;28;20486;-70
2022/07/08 10:03:18;;;;;;;5.20;1.20;;;;;;;20.76;88.54;103144.34;5116019;28;20119;-70
2022/07/08 10:05:43;;;;;;;2.05;0.98;;;;;;;20.96;86.53;103149.00;5116141;28;20051;-70
2022/07/08 10:08:10;;;;;;;4.22;0.80;;;;;;;21.01;86.67;103157.97;5116205;28;20086;-70
2022/07/08 10:10:38;;;;;;;3.70;0.98;;;;;;;21.02;83.33;103154.44;5116206;28;20423;-70
2022/07/08 10:13:04;;;;;;;4.43;0.73;;;;;;;21.14;86.07;103149.19;5116271;28;20114;-70
2022/07/08 10:15:31;;;;;;;5.78;1.13;;;;;;;21.22;83.15;103151.94;5115871;28;20030;-70
2022/07/08 10:18:01;;;;;;;4.10;0.80;;;;;;;21.22;79.57;103147.47;5115784;28;20023;-70
2022/07/08 10:20:31;;;;;;;3.55;0.82;;;;;;;21.20;81.29;103143.00;5115767;28;20413;-70
2022/07/08 10:23:00;;;;;;;3.22;0.60;;;;;;;21.38;81.34;103150.31;5116249;28;20475;-71
2022/07/08 10:25:26;;;;;;;2.72;0.80;;;;;;;21.58;80.43;103165.66;5112895;28;20039;-70
2022/07/08 10:27:51;;;;;;;4.68;0.73;;;;;;;21.54;75.56;103160.28;5105374;28;20088;-70
2022/07/08 10:30:19;;;;;;;2.17;0.60;;;;;;;21.58;74.45;103168.34;5102445;28;20111;-70
2022/07/08 10:32:47;;;;;;;3.40;0.70;;;;;;;21.73;71.78;103157.72;5105355;28;20490;-70
2022/07/08 10:35:21;;;;;;;3.83;1.00;;;;;;;21.86;69.47;103161.41;5098471;28;20019;-70
2022/07/08 10:37:56;;;;;;;3.15;0.90;;;;;;;21.62;68.88;103154.97;5086064;28;20035;-70
2022/07/08 10:40:53;;;;;;;6.30;0.82;;;;;;;21.49;68.26;103151.28;5094854;28;20069;-70
2022/07/08 10:43:18;;;;;;;2.70;0.98;;;;;;;21.64;69.96;103155.88;5086868;28;20177;-70
2022/07/08 10:46:11;;;;;;;3.67;0.75;;;;;;;21.86;68.09;103156.94;5096937;28;20062;-70
2022/07/08 10:48:43;;;;;;;1.77;0.65;;;;;;;22.05;66.99;103147.19;5115440;28;20394;-70
2022/07/08 10:51:17;;;;;;;1.67;0.70;;;;;;;22.14;66.07;103141.00;5114992;28;20459;-70
2022/07/08 10:53:45;;;;;;;1.63;0.70;;;;;;;22.23;64.95;103138.38;5114731;28;20076;-68
2022/07/08 10:56:11;;;;;;;3.63;0.70;;;;;;;22.40;63.49;103142.94;5110735;28;20089;-69
2022/07/08 10:59:35;;;;;;;3.47;1.40;;;;;;;22.52;61.65;103148.34;5115032;28;20027;-68
2022/07/08 11:02:09;;;;;;;1.80;0.60;;;;;;;22.46;62.74;103148.31;5052189;28;20079;-69
2022/07/08 11:04:35;;;;;;;3.60;0.88;;;;;;;22.80;64.02;103147.53;5052133;28;20025;-69
2022/07/08 11:07:24;;;;;;;2.50;0.80;;;;;;;23.02;62.90;103143.06;5085175;28;20042;-70
2022/07/08 11:09:53;;;;;;;2.90;0.90;;;;;;;23.22;61.59;103146.72;5114713;28;20320;-70
2022/07/08 11:12:24;;;;;;;2.13;0.90;;;;;;;23.39;63.30;103152.09;5114627;28;20487;-70
2022/07/08 11:14:51;;;;;;;2.65;0.80;;;;;;;23.60;59.59;103146.69;5114644;28;20027;-70